Terminal Aerodrome Forecast
Issued by NWS

Home | Current Version | Previous Version | Text Only | Print | Product List | Glossary On
Versions: 1 2 3 4 5 6 7 8 9 10 11 12 13 14 15 16
000
FTUS46 KSEW 231137
TAFBFI
TAF
KBFI 231137Z 2312/2412 16006KT P6SM VCSH SCT025 BKN040
     FM231600 16005KT P6SM -RA SCT015 OVC025
     FM231900 19008KT 6SM -RA BR SCT012 BKN020 OVC030
     FM240000 17010KT P6SM -SHRA SCT020 BKN030 OVC045
     FM240900 15005KT P6SM VCSH SCT025 BKN040 OVC060=

USA.gov is the U.S. government's official web portal to all federal, state and local government web resources and services.